Main page
METAR-TAF:

METAR-TAF

Airports :

Beja Airbase

Beja, Portugal

latitude: 38-04-40N, longitude: 007-55-57W, elevation: 193 m

Current weather observation

The report was made 1 hour and 7 minutes ago, at 20:00 UTC
Wind 4 kt from the East/Northeast
Temperature 9°C
Humidity 61%
Pressure 1023 hPa
Visibility 10 km or more
no clouds below 1500 m and no cumulonimbus

METAR: LPBJ 212000Z 07004KT CAVOK 09/02 Q1023

Time: 21:07 (21:07 UTC)

Forecast

The report was made 4 hours and 5 minutes ago, at 17:02 UTC
Forecast valid from 21 at 18 UTC to 22 at 18 UTC
Wind 8 kt from the East
Visibility 10 km or more
no clouds below 1500 m and no cumulonimbus

TAF: LPBJ 211702Z 2118/2218 08008KT CAVOK

Weather observations and forecasts of more than 4000 airports (METAR and TAF reports).

The available stations are represented by yellow and red dots on the map.

Hover mouse over dot to see the name of the station.

Then click to see weather observations and forecasts.

To change the map : click on the green buttons with a black cross to zoom in, on the green button with a dash to zoom out, or on the green arrows for adjacent maps.


METAR-TAF: